Castres-Mazamet Airport

Airport
ICAO code: 
LFCK
IATA Code: 
DCM
Summary
ICAO Region: 
EUR
Territory: 
Location: 
Lagarrigue, Midi-Pyrenees
Serving: 
Castres
Elevation: 
788 ft
Coordinates: 
Aerial View: 
43° 33' 22.5" N, 2° 17' 21.059" E
Metar
Observation
LFCK 020330Z AUTO 28008KT 9999 OVC009/// ///CB 06/06 Q1007
Station
Castres-Mazamet
Date/Time
2021-12-02 03:30:00
Wind direction
280°
Wind speed
08 kts
Lowest cloud amount
overcast
Temperature
6°C
Dew point
6°C
Humidity
100%
QNH
1007 hPa
Weather condition
n/a

Runways

Designator Length Width Surface Rops
14/32 1825 30 CON No/No
Airport map: 
Aerial View: 

SKYbrary Partners:

Safety knowledge contributed by: